Terminal Aerodrome Forecast
Issued by NWS

Home | Current Version | Previous Version | Text Only | Print | Product List | Glossary On
Versions: 1 2 3 4 5 6 7 8 9 10 11 12
000
FTUS45 KRIW 161100
TAFBPI
TAF
KBPI 161125Z 1612/1712 32010KT P6SM FEW050 SCT250
     FM162000 30010KT P6SM SCT050 BKN150
     FM170200 34006KT P6SM SCT060 BKN200=

USA.gov is the U.S. government's official web portal to all federal, state and local government web resources and services.